Time;durP1;ratioP1;P1;durP2;ratioP2;P2;SDS_P1;SDS_P2;PMS_P1;PMS_P2;Temp;Humidity;BMP_temperature;BMP_pressure;BME280_temperature;BME280_humidity;BME280_pressure;Samples;Min_cycle;Max_cycle;Signal;HPM_P1;HPM_P2
2021/09/29 00:01:19;;;;;;;74.07;70.50;;;;;;;14.57;100.00;98274.66;5091201;28;20040;-73
2021/09/29 00:03:45;;;;;;;80.57;76.07;;;;;;;14.50;100.00;98274.28;5092515;28;20119;-76
2021/09/29 00:06:10;;;;;;;69.93;66.78;;;;;;;14.48;100.00;98273.78;5079553;28;20489;-74
2021/09/29 00:08:36;;;;;;;81.35;77.63;;;;;;;14.37;100.00;98275.16;5071606;28;20040;-73
2021/09/29 00:11:01;;;;;;;67.78;64.85;;;;;;;14.28;100.00;98272.28;5069887;28;20036;-73
2021/09/29 00:13:27;;;;;;;89.38;84.65;;;;;;;14.19;100.00;98262.38;5072080;28;20035;-74
2021/09/29 00:15:53;;;;;;;76.63;73.18;;;;;;;14.29;100.00;98268.41;5070559;28;20021;-73
2021/09/29 00:18:20;;;;;;;67.03;63.97;;;;;;;14.41;100.00;98281.66;5070546;28;20039;-75
2021/09/29 00:20:46;;;;;;;65.03;61.88;;;;;;;14.38;100.00;98274.00;5085569;28;20018;-73
2021/09/29 00:23:11;;;;;;;59.35;56.63;;;;;;;14.36;100.00;98268.03;5090087;28;20077;-74
2021/09/29 00:25:37;;;;;;;77.53;74.07;;;;;;;14.28;100.00;98269.53;5090137;28;20119;-75
2021/09/29 00:28:02;;;;;;;63.97;61.25;;;;;;;14.09;100.00;98255.16;5091379;28;20123;-75
2021/09/29 00:30:31;;;;;;;63.03;60.30;;;;;;;14.12;100.00;98261.97;5091426;28;20110;-76
2021/09/29 00:33:01;;;;;;;58.90;56.35;;;;;;;14.20;100.00;98263.97;5091750;28;20019;-74
2021/09/29 00:35:26;;;;;;;70.22;67.28;;;;;;;14.24;100.00;98264.97;5091625;28;20101;-74
2021/09/29 00:37:52;;;;;;;74.63;71.38;;;;;;;14.23;100.00;98260.59;5090537;28;20480;-76
2021/09/29 00:40:17;;;;;;;76.15;72.82;;;;;;;14.33;100.00;98263.13;5090275;28;20054;-75
2021/09/29 00:42:43;;;;;;;64.03;61.20;;;;;;;14.28;100.00;98261.28;5090051;28;20026;-74
2021/09/29 00:45:08;;;;;;;66.80;63.03;;;;;;;14.34;100.00;98260.09;5089656;28;20022;-74
2021/09/29 00:47:34;;;;;;;74.10;70.80;;;;;;;14.21;100.00;98233.41;5091434;28;20039;-75
2021/09/29 00:50:00;;;;;;;67.35;64.55;;;;;;;14.22;100.00;98234.22;5090328;28;20024;-75
2021/09/29 00:52:26;;;;;;;64.15;61.15;;;;;;;14.19;100.00;98243.09;5091113;28;20028;-75
2021/09/29 00:54:53;;;;;;;62.30;59.45;;;;;;;14.12;100.00;98245.47;5091265;28;20020;-75
2021/09/29 00:57:19;;;;;;;67.35;64.40;;;;;;;14.05;100.00;98240.38;5090685;28;20032;-76
2021/09/29 00:59:44;;;;;;;79.10;75.53;;;;;;;14.24;100.00;98243.78;5089272;28;20046;-73
2021/09/29 01:02:10;;;;;;;65.03;62.03;;;;;;;14.31;100.00;98233.16;5090789;28;20128;-73
2021/09/29 01:04:36;;;;;;;60.47;57.95;;;;;;;14.25;100.00;98231.63;5089998;28;20035;-74
2021/09/29 01:07:27;;;;;;;60.15;57.63;;;;;;;14.19;100.00;98232.09;5090844;28;20105;-74
2021/09/29 01:10:14;;;;;;;61.78;59.17;;;;;;;14.09;100.00;98229.59;5085383;28;20040;-74
2021/09/29 01:13:17;;;;;;;68.03;64.85;;;;;;;14.11;100.00;98227.31;5089927;28;20024;-75
2021/09/29 01:15:49;;;;;;;58.28;55.78;;;;;;;14.24;100.00;98226.47;5067999;28;20044;-75
2021/09/29 01:18:19;;;;;;;63.42;60.58;;;;;;;14.26;100.00;98224.19;5091416;28;20227;-75
2021/09/29 01:20:48;;;;;;;65.75;62.33;;;;;;;14.26;100.00;98225.03;5091244;28;20036;-77
2021/09/29 01:24:06;;;;;;;68.38;65.22;;;;;;;14.22;100.00;98231.47;5093219;28;20028;-75
2021/09/29 01:26:34;;;;;;;68.07;64.18;;;;;;;14.19;100.00;98224.63;5062461;28;20043;-73
2021/09/29 01:29:09;;;;;;;60.15;57.63;;;;;;;14.11;100.00;98219.88;5092338;28;20040;-78
2021/09/29 01:31:35;;;;;;;59.80;57.13;;;;;;;14.01;100.00;98219.31;5088965;28;20020;-74
2021/09/29 01:34:02;;;;;;;62.58;59.85;;;;;;;13.88;100.00;98202.53;5090248;28;20047;-73
2021/09/29 01:36:28;;;;;;;67.38;64.35;;;;;;;13.95;100.00;98204.88;5088507;28;20551;-74
2021/09/29 01:38:56;;;;;;;59.50;56.75;;;;;;;13.97;100.00;98199.06;5090523;28;20027;-75
2021/09/29 01:41:31;;;;;;;70.72;67.63;;;;;;;13.93;100.00;98204.38;5090387;28;20549;-75
2021/09/29 01:43:58;;;;;;;58.43;55.90;;;;;;;13.96;100.00;98206.50;5090471;28;20139;-74
2021/09/29 01:46:25;;;;;;;60.80;58.10;;;;;;;14.00;100.00;98207.50;5088875;28;20100;-75
2021/09/29 01:49:01;;;;;;;60.53;57.95;;;;;;;14.02;100.00;98205.25;5090496;28;20050;-74
2021/09/29 01:51:30;;;;;;;57.42;55.05;;;;;;;14.08;100.00;98195.75;5088937;28;20062;-74
2021/09/29 01:53:58;;;;;;;79.95;76.28;;;;;;;14.02;100.00;98196.19;5088922;28;20031;-73
2021/09/29 01:56:24;;;;;;;81.60;78.03;;;;;;;14.05;100.00;98198.31;5090212;28;20028;-73
2021/09/29 01:58:50;;;;;;;85.50;81.95;;;;;;;14.02;100.00;98208.00;5090528;28;20120;-76
2021/09/29 02:01:15;;;;;;;76.30;72.80;;;;;;;14.03;100.00;98192.31;5090791;28;20078;-75
2021/09/29 02:03:45;;;;;;;70.00;66.95;;;;;;;14.10;100.00;98195.44;5088536;28;20024;-74
2021/09/29 02:06:11;;;;;;;68.40;65.18;;;;;;;14.08;100.00;98195.75;5089827;28;20043;-73
2021/09/29 02:08:37;;;;;;;74.20;71.00;;;;;;;13.98;100.00;98196.00;5089238;28;20036;-73
2021/09/29 02:11:02;;;;;;;79.10;75.65;;;;;;;13.89;100.00;98193.19;5089327;28;20027;-74
2021/09/29 02:13:28;;;;;;;68.30;65.30;;;;;;;13.79;100.00;98198.91;5088616;28;20012;-75
2021/09/29 02:15:54;;;;;;;63.90;61.17;;;;;;;13.76;100.00;98188.53;5088944;28;20028;-73
2021/09/29 02:18:19;;;;;;;64.10;61.50;;;;;;;13.68;100.00;98175.53;5090150;28;20043;-73
2021/09/29 02:20:45;;;;;;;64.40;61.60;;;;;;;13.70;100.00;98187.03;5089957;28;20027;-73
2021/09/29 02:23:10;;;;;;;63.33;60.60;;;;;;;13.66;100.00;98191.50;5087962;28;20035;-74
2021/09/29 02:25:36;;;;;;;65.68;62.88;;;;;;;13.53;100.00;98181.38;5089483;28;20411;-73
2021/09/29 02:28:02;;;;;;;60.95;58.45;;;;;;;13.59;100.00;98193.88;5089255;28;20035;-74
2021/09/29 02:30:27;;;;;;;59.13;56.70;;;;;;;13.46;100.00;98180.97;5089662;28;20413;-74
2021/09/29 02:32:52;;;;;;;70.85;67.90;;;;;;;13.50;100.00;98176.47;5088198;28;20120;-74
2021/09/29 02:35:18;;;;;;;68.72;65.82;;;;;;;13.56;100.00;98194.50;5087912;28;20035;-74
2021/09/29 02:37:44;;;;;;;70.43;67.53;;;;;;;13.62;100.00;98187.78;5087694;28;20031;-76
2021/09/29 02:40:09;;;;;;;70.35;67.35;;;;;;;13.74;100.00;98174.28;5088945;28;20468;-74
2021/09/29 02:42:35;;;;;;;77.15;73.97;;;;;;;13.70;100.00;98166.97;5089822;28;20035;-75
2021/09/29 02:45:01;;;;;;;80.72;77.35;;;;;;;13.76;100.00;98183.03;5090106;28;20047;-75
2021/09/29 02:47:27;;;;;;;92.43;88.50;;;;;;;13.73;100.00;98186.41;5087675;28;20064;-75
2021/09/29 02:49:52;;;;;;;94.20;90.25;;;;;;;13.65;100.00;98192.66;5089581;28;20107;-74
2021/09/29 02:52:18;;;;;;;87.00;83.18;;;;;;;13.73;100.00;98191.91;5088471;28;20125;-74
2021/09/29 02:54:43;;;;;;;89.68;85.82;;;;;;;13.76;100.00;98183.03;5089391;28;20035;-73
2021/09/29 02:57:09;;;;;;;88.75;85.13;;;;;;;13.85;100.00;98183.91;5088262;28;20032;-74
2021/09/29 02:59:35;;;;;;;84.47;80.82;;;;;;;13.90;100.00;98183.00;5089655;28;20016;-75
2021/09/29 03:02:01;;;;;;;105.18;100.82;;;;;;;13.85;100.00;98183.91;5089608;28;20059;-73
2021/09/29 03:04:26;;;;;;;107.85;103.38;;;;;;;13.83;100.00;98183.44;5087944;28;20047;-74
2021/09/29 03:06:51;;;;;;;118.53;113.40;;;;;;;13.92;100.00;98197.25;5089561;28;20048;-75
2021/09/29 03:09:17;;;;;;;105.00;100.72;;;;;;;13.84;100.00;98184.25;5089791;28;20028;-76
2021/09/29 03:11:42;;;;;;;99.53;95.28;;;;;;;13.77;100.00;98190.16;5088037;28;20032;-75
2021/09/29 03:14:08;;;;;;;101.18;96.88;;;;;;;13.82;100.00;98187.28;5089031;28;20028;-75
2021/09/29 03:16:33;;;;;;;106.18;101.53;;;;;;;13.94;100.00;98184.78;5089998;28;20027;-75
2021/09/29 03:18:59;;;;;;;119.20;113.43;;;;;;;13.92;100.00;98184.31;5090206;28;20097;-75
2021/09/29 03:21:24;;;;;;;128.38;122.95;;;;;;;13.95;100.00;98172.69;5088428;28;20028;-74
2021/09/29 03:23:50;;;;;;;130.75;125.15;;;;;;;14.01;100.00;98189.06;5088223;28;20119;-75
2021/09/29 03:26:15;;;;;;;125.90;120.57;;;;;;;13.94;100.00;98195.78;5089434;28;20844;-75
2021/09/29 03:28:41;;;;;;;132.63;126.85;;;;;;;13.92;100.00;98192.56;5093217;28;20036;-74
2021/09/29 03:31:06;;;;;;;124.10;118.88;;;;;;;14.02;100.00;98194.25;5092007;28;20031;-75
2021/09/29 03:33:32;;;;;;;124.55;119.13;;;;;;;14.13;100.00;98192.03;5093510;28;20430;-73
2021/09/29 03:35:57;;;;;;;127.25;121.72;;;;;;;13.95;100.00;98180.94;5093070;28;20028;-74
2021/09/29 03:38:23;;;;;;;112.78;108.00;;;;;;;13.88;100.00;98179.72;5093735;28;20384;-74
2021/09/29 03:40:48;;;;;;;111.50;106.82;;;;;;;14.01;100.00;98173.38;5091619;28;20446;-76
2021/09/29 03:43:14;;;;;;;114.22;109.38;;;;;;;13.90;100.00;98178.31;5091727;28;20031;-75
2021/09/29 03:45:39;;;;;;;113.22;108.38;;;;;;;13.83;100.00;98180.66;5092165;28;20031;-73
2021/09/29 03:48:05;;;;;;;107.25;102.47;;;;;;;13.78;100.00;98169.78;5093721;28;20075;-77
2021/09/29 03:50:30;;;;;;;87.90;83.35;;;;;;;13.84;100.00;98185.06;5093896;28;20024;-77
2021/09/29 03:52:55;;;;;;;71.07;68.07;;;;;;;13.74;100.00;98179.78;5093386;28;20024;-74
2021/09/29 03:55:22;;;;;;;67.78;64.82;;;;;;;13.94;100.00;98175.72;5091684;28;20107;-75
2021/09/29 03:57:48;;;;;;;67.47;64.63;;;;;;;13.99;100.00;98174.81;5092842;28;20020;-74
2021/09/29 04:00:14;;;;;;;63.90;61.20;;;;;;;13.94;100.00;98184.78;5091140;28;20096;-74
2021/09/29 04:02:41;;;;;;;75.35;72.15;;;;;;;13.85;100.00;98183.09;5093178;28;20374;-75
2021/09/29 04:05:07;;;;;;;76.50;72.82;;;;;;;13.83;100.00;98171.59;5096280;28;20488;-75
2021/09/29 04:07:33;;;;;;;68.18;64.90;;;;;;;13.89;100.00;98187.69;5097256;28;20050;-74
2021/09/29 04:09:58;;;;;;;70.07;67.00;;;;;;;13.85;100.00;98164.66;5093389;28;20032;-73
2021/09/29 04:12:24;;;;;;;73.05;70.05;;;;;;;13.88;100.00;98175.03;5092615;28;20461;-73
2021/09/29 04:14:50;;;;;;;75.47;72.10;;;;;;;13.82;100.00;98175.47;5092736;28;20020;-73
2021/09/29 04:17:16;;;;;;;74.40;71.20;;;;;;;13.93;100.00;98171.38;5092203;28;20032;-75
2021/09/29 04:19:41;;;;;;;62.72;59.88;;;;;;;13.89;100.00;98182.19;5092252;28;20066;-75
2021/09/29 04:22:10;;;;;;;65.45;62.55;;;;;;;13.83;100.00;98188.94;5090559;28;20038;-73
2021/09/29 04:24:37;;;;;;;78.25;74.60;;;;;;;13.78;100.00;98169.00;5090523;28;20032;-74
2021/09/29 04:27:03;;;;;;;76.30;72.68;;;;;;;13.80;100.00;98178.53;5092097;28;20016;-75
2021/09/29 04:29:28;;;;;;;78.40;75.03;;;;;;;13.77;100.00;98178.34;5093096;28;20051;-74
2021/09/29 04:31:54;;;;;;;69.40;66.25;;;;;;;13.71;100.00;98171.34;5092314;28;20016;-76
2021/09/29 04:34:19;;;;;;;72.18;68.93;;;;;;;13.78;100.00;98175.28;5090796;28;20145;-74
2021/09/29 04:36:46;;;;;;;77.68;74.32;;;;;;;13.90;100.00;98172.81;5091654;28;20028;-73
2021/09/29 04:39:13;;;;;;;67.80;64.90;;;;;;;13.91;100.00;98168.09;5091453;28;20016;-73
2021/09/29 04:41:38;;;;;;;65.03;62.15;;;;;;;13.92;100.00;98156.81;5090331;28;20028;-74
2021/09/29 04:44:03;;;;;;;60.65;58.15;;;;;;;13.85;100.00;98164.66;5091894;28;20027;-76
2021/09/29 04:46:29;;;;;;;73.18;69.75;;;;;;;13.84;100.00;98176.81;5091630;28;20467;-75
2021/09/29 04:48:54;;;;;;;72.13;68.90;;;;;;;13.83;100.00;98161.44;5091401;28;20032;-76
2021/09/29 04:51:20;;;;;;;66.90;64.10;;;;;;;13.84;100.00;98162.25;5084823;28;20029;-75
2021/09/29 04:53:45;;;;;;;60.45;57.85;;;;;;;13.87;100.00;98178.94;5070803;28;20050;-73
2021/09/29 04:56:11;;;;;;;70.47;67.18;;;;;;;13.86;100.00;98171.81;5071095;28;20032;-75
2021/09/29 04:58:37;;;;;;;76.72;73.55;;;;;;;13.83;100.00;98177.09;5075722;28;20473;-73
2021/09/29 05:01:02;;;;;;;102.10;97.75;;;;;;;13.76;100.00;98168.47;5091635;28;20024;-79
2021/09/29 05:03:29;;;;;;;79.45;76.05;;;;;;;13.73;100.00;98169.91;5089790;28;20744;-76
2021/09/29 05:05:55;;;;;;;79.75;76.38;;;;;;;13.73;100.00;98172.66;5091020;28;20020;-76
2021/09/29 05:08:25;;;;;;;70.55;67.65;;;;;;;13.82;100.00;98175.47;5089593;28;20404;-78
2021/09/29 05:10:54;;;;;;;78.93;75.10;;;;;;;13.85;100.00;98181.16;5087039;28;20020;-81
2021/09/29 05:13:30;;;;;;;79.97;76.35;;;;;;;13.62;100.00;98167.72;5108678;28;20062;-83
2021/09/29 05:15:57;;;;;;;82.25;78.80;;;;;;;13.68;100.00;98183.78;5111183;28;20162;-82
2021/09/29 05:18:22;;;;;;;79.43;76.03;;;;;;;13.71;100.00;98183.16;5110624;28;20026;-83
2021/09/29 05:20:48;;;;;;;69.78;66.72;;;;;;;13.74;100.00;98177.03;5102091;28;20024;-81
2021/09/29 05:23:14;;;;;;;69.28;66.43;;;;;;;13.72;100.00;98182.00;5101119;28;20028;-81
2021/09/29 05:25:39;;;;;;;85.95;82.35;;;;;;;13.77;100.00;98181.09;5107058;28;20055;-82
2021/09/29 05:28:12;;;;;;;80.20;76.75;;;;;;;13.85;100.00;98186.66;5098663;28;20081;-77
2021/09/29 05:30:38;;;;;;;81.18;77.53;;;;;;;13.68;100.00;98181.03;5084484;28;20028;-74
2021/09/29 05:33:04;;;;;;;84.30;80.65;;;;;;;13.92;100.00;98181.56;5091129;28;20028;-77
2021/09/29 05:35:29;;;;;;;85.93;82.35;;;;;;;14.03;100.00;98173.06;5089348;28;20032;-80
2021/09/29 05:37:55;;;;;;;90.38;86.57;;;;;;;14.01;100.00;98175.28;5095740;28;20122;-75
2021/09/29 05:40:21;;;;;;;104.93;100.45;;;;;;;14.03;100.00;98164.81;5088784;28;20028;-80
2021/09/29 05:42:46;;;;;;;115.22;110.30;;;;;;;14.30;100.00;98181.19;5090215;28;20024;-79
2021/09/29 05:45:12;;;;;;;104.13;99.57;;;;;;;14.18;100.00;98184.50;5093251;28;20028;-82
2021/09/29 05:47:38;;;;;;;109.20;104.30;;;;;;;14.32;100.00;98176.16;5092757;28;20047;-82
2021/09/29 05:50:04;;;;;;;101.15;95.93;;;;;;;14.32;100.00;98162.41;5089581;28;20417;-77
2021/09/29 05:52:30;;;;;;;74.55;71.40;;;;;;;14.37;100.00;98165.06;5092586;28;20024;-80
2021/09/29 05:54:55;;;;;;;86.55;82.85;;;;;;;14.35;100.00;98178.31;5091789;28;20103;-81
2021/09/29 05:57:21;;;;;;;85.00;80.97;;;;;;;14.43;100.00;98172.88;5092191;28;20549;-80
2021/09/29 05:59:46;;;;;;;75.82;72.50;;;;;;;14.48;100.00;98166.41;5089969;28;20081;-81
2021/09/29 06:02:12;;;;;;;68.65;65.43;;;;;;;14.65;100.00;98169.28;5094231;28;20020;-81
2021/09/29 06:04:40;;;;;;;60.03;57.47;;;;;;;14.71;100.00;98186.47;5090266;28;20127;-79
2021/09/29 06:07:07;;;;;;;67.75;64.85;;;;;;;14.70;100.00;98179.31;5089706;28;20101;-80
2021/09/29 06:09:32;;;;;;;61.47;58.90;;;;;;;14.89;100.00;98182.66;5090362;28;20469;-81
2021/09/29 06:11:59;;;;;;;89.85;85.95;;;;;;;14.94;100.00;98186.09;5091815;28;20040;-79
2021/09/29 06:14:24;;;;;;;89.82;86.13;;;;;;;15.03;100.00;98184.16;5090074;28;20043;-79
2021/09/29 06:16:57;;;;;;;77.57;74.10;;;;;;;15.18;100.00;98193.97;5089061;28;20020;-79
2021/09/29 06:19:23;;;;;;;61.10;58.53;;;;;;;15.48;100.00;98198.63;5086228;28;20024;-78
2021/09/29 06:21:48;;;;;;;51.72;49.17;;;;;;;15.88;100.00;98202.06;5069580;28;20036;-81
2021/09/29 06:24:14;;;;;;;73.95;70.60;;;;;;;15.87;100.00;98191.38;5069416;28;20074;-80
2021/09/29 06:26:40;;;;;;;55.38;53.03;;;;;;;15.84;100.00;98195.59;5071703;28;20437;-82
2021/09/29 06:29:05;;;;;;;39.85;38.08;;;;;;;15.79;100.00;98201.25;5069132;28;20040;-80
2021/09/29 06:31:31;;;;;;;47.47;45.40;;;;;;;15.74;100.00;98203.38;5070925;28;20029;-80
2021/09/29 06:33:56;;;;;;;50.78;48.55;;;;;;;15.79;100.00;98204.00;5069187;28;20013;-79
2021/09/29 06:36:22;;;;;;;54.95;52.58;;;;;;;15.79;100.00;98192.97;5070534;28;20138;-78
2021/09/29 06:38:47;;;;;;;39.38;37.63;;;;;;;15.67;100.00;98190.06;5070459;28;20071;-80
2021/09/29 06:41:12;;;;;;;37.65;35.85;;;;;;;15.63;100.00;98197.34;5069666;28;20111;-79
2021/09/29 06:43:38;;;;;;;36.00;34.40;;;;;;;15.95;100.00;98198.81;5074588;28;20035;-80
2021/09/29 06:46:03;;;;;;;34.20;32.70;;;;;;;16.25;100.00;98208.09;5075478;28;20054;-80
2021/09/29 06:48:29;;;;;;;31.08;29.75;;;;;;;16.50;100.00;98210.00;5074186;28;20067;-79
2021/09/29 06:50:54;;;;;;;39.45;37.10;;;;;;;16.51;100.00;98206.09;5070486;28;20103;-78
2021/09/29 06:53:23;;;;;;;35.78;34.22;;;;;;;16.59;100.00;98202.56;5070754;28;20032;-79
2021/09/29 06:55:49;;;;;;;29.55;28.25;;;;;;;16.89;99.01;98207.00;5071692;28;20070;-77
2021/09/29 06:58:15;;;;;;;31.08;29.65;;;;;;;16.79;99.54;98204.59;5070328;28;20029;-78
2021/09/29 07:00:41;;;;;;;31.75;30.20;;;;;;;17.12;96.47;98191.81;5071113;28;20368;-79
2021/09/29 07:03:07;;;;;;;31.20;29.88;;;;;;;17.40;94.67;98205.97;5072660;28;20054;-79
2021/09/29 07:05:32;;;;;;;31.45;29.45;;;;;;;17.94;91.32;98209.75;5072769;28;20078;-80
2021/09/29 07:07:59;;;;;;;27.52;25.80;;;;;;;18.15;88.96;98213.31;5073663;28;20048;-78
2021/09/29 07:10:26;;;;;;;23.85;22.67;;;;;;;18.31;88.50;98209.94;5073520;28;20036;-79
2021/09/29 07:12:51;;;;;;;30.38;29.10;;;;;;;18.75;85.89;98214.75;5073419;28;20035;-78
2021/09/29 07:15:17;;;;;;;25.00;23.90;;;;;;;18.80;85.45;98203.44;5072603;28;20290;-78
2021/09/29 07:17:44;;;;;;;23.70;22.55;;;;;;;18.77;86.10;98209.66;5073662;28;20046;-77
2021/09/29 07:20:11;;;;;;;31.83;30.45;;;;;;;18.30;86.69;98205.53;5071885;28;20055;-77
2021/09/29 07:22:38;;;;;;;23.63;22.40;;;;;;;18.53;87.32;98198.50;5072387;28;20025;-78
2021/09/29 07:25:05;;;;;;;21.95;20.75;;;;;;;18.26;88.62;98182.44;5074177;28;20512;-79
2021/09/29 07:27:31;;;;;;;22.85;21.83;;;;;;;18.39;87.06;98189.63;5108682;28;20033;-79
2021/09/29 07:29:56;;;;;;;32.97;31.58;;;;;;;18.43;86.19;98193.34;5074853;28;20024;-81
2021/09/29 07:32:24;;;;;;;39.88;37.97;;;;;;;18.22;88.53;98198.13;5077791;28;20473;-80
2021/09/29 07:34:50;;;;;;;21.60;20.70;;;;;;;19.73;80.31;98202.59;5076990;28;20284;-83
2021/09/29 07:37:15;;;;;;;21.23;19.83;;;;;;;20.38;77.08;98208.94;5073979;28;20051;-83
2021/09/29 07:39:41;;;;;;;21.48;20.38;;;;;;;21.53;70.83;98207.69;5072295;28;20030;-81
2021/09/29 07:42:06;;;;;;;19.23;18.33;;;;;;;21.69;70.19;98200.13;5074680;28;20024;-80
2021/09/29 07:44:32;;;;;;;21.38;20.23;;;;;;;22.25;67.17;98210.94;5073990;28;20666;-82
2021/09/29 07:46:57;;;;;;;17.50;16.27;;;;;;;23.64;62.08;98209.66;5075806;28;20032;-83
2021/09/29 07:49:23;;;;;;;23.48;22.33;;;;;;;21.98;68.27;98212.75;5075023;28;20051;-83
2021/09/29 07:51:49;;;;;;;22.45;21.02;;;;;;;23.59;62.52;98207.97;5075420;28;20024;-83
2021/09/29 07:54:15;;;;;;;20.65;19.48;;;;;;;21.99;66.77;98203.22;5093152;28;20036;-83
2021/09/29 07:56:40;;;;;;;17.77;16.85;;;;;;;21.43;69.15;98197.09;5092364;28;20101;-84
2021/09/29 07:59:06;;;;;;;18.30;17.40;;;;;;;22.65;65.87;98214.22;5093538;28;20106;-83
2021/09/29 08:01:33;;;;;;;19.05;18.17;;;;;;;22.63;64.88;98205.38;5093910;28;20366;-82
2021/09/29 08:03:58;;;;;;;17.17;16.33;;;;;;;23.12;63.63;98197.16;5093594;28;20028;-84
2021/09/29 08:06:24;;;;;;;19.38;18.45;;;;;;;23.28;62.06;98192.25;5093108;28;20044;-83
2021/09/29 08:08:51;;;;;;;21.35;20.45;;;;;;;24.02;60.95;98203.03;5094446;28;20028;-82
2021/09/29 08:11:17;;;;;;;17.95;17.05;;;;;;;23.19;62.76;98205.66;5093505;28;20032;-83
2021/09/29 08:13:42;;;;;;;17.35;16.55;;;;;;;23.56;61.81;98205.09;5093240;28;20382;-83
2021/09/29 08:16:08;;;;;;;16.63;15.45;;;;;;;24.78;57.06;98207.22;5094022;28;20107;-83
2021/09/29 08:18:33;;;;;;;17.23;16.42;;;;;;;24.40;58.24;98200.78;5093522;28;20480;-81
2021/09/29 08:21:01;;;;;;;18.30;17.23;;;;;;;24.36;57.67;98197.16;5092014;28;20477;-83
2021/09/29 08:23:39;;;;;;;19.42;18.42;;;;;;;24.07;58.86;98195.13;5091368;28;20035;-83
2021/09/29 08:26:34;;;;;;;18.00;17.17;;;;;;;23.86;60.77;98183.66;5091491;28;20028;-81
2021/09/29 08:29:20;;;;;;;17.17;16.35;;;;;;;24.24;58.85;98185.41;5090498;28;20038;-82
2021/09/29 08:42:31;;;;;;;17.00;16.20;;;;;;;24.80;56.17;98194.47;5091789;28;20012;-82
2021/09/29 08:45:04;;;;;;;30.98;29.60;;;;;;;25.89;53.85;98193.91;5092277;28;20031;-83
2021/09/29 08:50:34;;;;;;;21.10;20.03;;;;;;;27.17;50.00;98196.09;5076780;28;20048;-83
2021/09/29 09:17:27;;;;;;;24.27;23.25;;;;;;;27.97;47.52;98191.72;5089149;28;20032;-79
2021/09/29 09:19:53;;;;;;;29.13;27.73;;;;;;;29.04;44.39;98189.31;5090772;28;20449;-75
2021/09/29 09:22:18;;;;;;;27.35;26.15;;;;;;;28.54;45.92;98183.91;5089441;28;20455;-76
2021/09/29 09:24:53;;;;;;;29.08;27.77;;;;;;;29.90;42.36;98181.84;5091173;28;20097;-75
2021/09/29 09:27:18;;;;;;;26.60;25.13;;;;;;;27.57;47.63;98190.13;5090815;28;20759;-79
2021/09/29 09:29:45;;;;;;;26.20;24.80;;;;;;;29.30;43.24;98190.78;5092195;28;20019;-78
2021/09/29 09:32:12;;;;;;;25.33;24.08;;;;;;;28.88;43.74;98180.56;5089068;28;20249;-79
2021/09/29 09:34:38;;;;;;;26.13;24.98;;;;;;;27.75;46.88;98178.06;5089572;28;20016;-79
2021/09/29 09:37:12;;;;;;;20.48;19.52;;;;;;;29.42;42.76;98188.25;5089431;28;20043;-79
2021/09/29 09:39:38;;;;;;;22.25;21.05;;;;;;;29.34;43.04;98181.09;5088109;28;20028;-79
2021/09/29 09:42:07;;;;;;;23.52;22.33;;;;;;;26.85;49.20;98167.94;5089791;28;20098;-78
2021/09/29 09:44:36;;;;;;;21.05;20.02;;;;;;;27.63;47.16;98174.44;5089946;28;20099;-79
2021/09/29 09:47:12;;;;;;;26.50;25.30;;;;;;;28.60;44.51;98170.22;5087973;28;20028;-76
2021/09/29 09:49:48;;;;;;;25.15;23.05;;;;;;;27.53;46.16;98166.84;5089439;28;20024;-81
2021/09/29 09:52:32;;;;;;;23.52;22.40;;;;;;;28.92;43.81;98170.06;5088693;28;20024;-81
2021/09/29 09:55:05;;;;;;;22.98;21.85;;;;;;;29.62;42.16;98157.50;5084699;28;20558;-77
2021/09/29 09:57:30;;;;;;;20.98;19.95;;;;;;;30.08;40.35;98162.69;5087046;28;20043;-80
2021/09/29 09:59:58;;;;;;;21.80;20.80;;;;;;;29.93;39.81;98155.59;5086817;28;20059;-76
2021/09/29 10:02:23;;;;;;;21.30;20.25;;;;;;;28.56;43.46;98163.78;5087656;28;20036;-77
2021/09/29 10:04:49;;;;;;;18.60;17.80;;;;;;;29.70;40.16;98154.19;5095041;28;20075;-79
2021/09/29 10:07:15;;;;;;;23.02;21.52;;;;;;;29.70;40.03;98148.53;5098343;28;20446;-75
2021/09/29 10:09:57;;;;;;;18.65;17.75;;;;;;;30.01;39.21;98148.69;5098022;28;20028;-77
2021/09/29 10:12:42;;;;;;;18.38;17.50;;;;;;;29.98;39.82;98149.53;5102896;28;20462;-78
2021/09/29 10:23:39;;;;;;;17.40;16.50;;;;;;;29.29;40.91;98153.31;5104954;28;20036;-80
2021/09/29 10:26:19;;;;;;;16.15;15.35;;;;;;;28.88;40.65;98118.59;5098223;28;20107;-78
2021/09/29 10:28:45;;;;;;;16.45;15.65;;;;;;;29.22;41.33;98151.34;5092943;28;20036;-76
2021/09/29 10:34:04;;;;;;;16.77;15.98;;;;;;;28.15;43.01;98138.22;5089531;28;20026;-78
2021/09/29 10:42:00;;;;;;;16.35;15.55;;;;;;;29.35;39.46;98126.31;5085430;28;20031;-79
2021/09/29 11:11:41;;;;;;;19.67;18.60;;;;;;;25.64;49.79;98095.63;5049053;28;20033;-74
2021/09/29 11:30:33;;;;;;;21.60;20.60;;;;;;;24.55;52.38;98070.28;5071992;28;20504;-76
2021/09/29 11:33:17;;;;;;;17.58;16.80;;;;;;;24.38;52.54;98070.91;5071551;28;20017;-75
2021/09/29 12:08:19;;;;;;;30.02;28.52;;;;;;;22.80;61.67;98037.56;5093939;28;20073;-68
2021/09/29 12:17:35;;;;;;;130.20;124.25;;;;;;;23.26;60.67;98027.13;5105783;27;20380;-69
2021/09/29 12:20:12;;;;;;;103.28;98.18;;;;;;;23.15;60.71;98026.13;5095243;28;20088;-70
2021/09/29 12:22:41;;;;;;;124.80;119.28;;;;;;;23.07;61.27;98024.44;5096348;28;20032;-69
2021/09/29 12:25:10;;;;;;;149.20;142.57;;;;;;;23.04;61.18;98025.19;5099598;28;20016;-70
2021/09/29 12:32:44;;;;;;;10.77;8.07;;;;;;;23.56;60.23;98009.59;5085807;27;20390;-60
2021/09/29 12:37:53;;;;;;;13.98;8.80;;;;;;;23.11;61.42;98014.13;5084761;28;20035;-62
2021/09/29 12:40:19;;;;;;;14.32;7.68;;;;;;;23.05;62.01;98010.06;5082708;28;20048;-61
2021/09/29 12:42:44;;;;;;;10.13;7.32;;;;;;;22.97;61.22;98013.91;5085060;28;20082;-60
2021/09/29 12:45:10;;;;;;;13.18;7.57;;;;;;;23.05;61.51;98004.47;5084929;28;20040;-62
2021/09/29 12:47:39;;;;;;;12.90;8.07;;;;;;;23.01;61.57;98003.63;5084903;28;20384;-61
2021/09/29 12:50:27;;;;;;;14.77;7.85;;;;;;;22.99;62.56;98003.19;5085280;28;20035;-61
2021/09/29 12:53:04;;;;;;;10.48;8.13;;;;;;;22.99;62.47;98003.19;5081853;28;20031;-61
2021/09/29 12:55:35;;;;;;;12.38;7.80;;;;;;;23.00;62.71;98004.78;5085667;28;20103;-61
2021/09/29 12:58:01;;;;;;;10.98;7.57;;;;;;;22.97;62.09;97997.16;5082335;28;20535;-62
2021/09/29 13:00:26;;;;;;;12.02;8.07;;;;;;;22.97;62.04;97991.59;5084735;28;20032;-62
2021/09/29 13:02:52;;;;;;;16.15;8.13;;;;;;;22.99;62.10;98005.19;5083830;28;20109;-62
2021/09/29 13:05:17;;;;;;;13.20;8.00;;;;;;;22.93;61.18;97994.31;5083345;28;20074;-62
2021/09/29 13:07:42;;;;;;;12.90;8.07;;;;;;;22.92;61.12;97989.13;5084551;28;20031;-62
2021/09/29 13:10:08;;;;;;;10.88;8.00;;;;;;;22.88;61.54;97994.66;5085268;28;20031;-62
2021/09/29 13:12:34;;;;;;;13.32;7.15;;;;;;;22.86;61.66;97996.22;5085300;28;20016;-62
2021/09/29 13:21:34;;;;;;;14.73;7.32;;;;;;;25.17;51.62;98000.44;5065524;28;20438;-70
2021/09/29 13:24:07;;;;;;;8.63;6.78;;;;;;;25.10;51.37;97998.41;5053783;28;20038;-70
2021/09/29 13:37:19;;;;;;;10.80;6.15;;;;;;;24.71;51.20;97988.91;5053965;28;20460;-69
2021/09/29 13:39:45;;;;;;;14.35;6.15;;;;;;;24.99;48.95;97989.94;5051609;28;20025;-71
2021/09/29 13:42:10;;;;;;;8.23;6.20;;;;;;;25.25;49.63;97991.69;5053283;28;20036;-70
2021/09/29 13:44:39;;;;;;;8.40;6.72;;;;;;;25.42;50.82;97993.81;5046612;28;20055;-70
2021/09/29 13:47:04;;;;;;;8.50;6.00;;;;;;;25.69;50.50;98010.34;5055908;28;20485;-71
2021/09/29 13:49:30;;;;;;;11.63;6.88;;;;;;;25.45;51.04;98009.81;5053456;28;20144;-71
2021/09/29 13:51:58;;;;;;;10.80;6.15;;;;;;;25.40;51.48;97987.81;5053792;28;20489;-70
2021/09/29 13:54:24;;;;;;;10.88;6.93;;;;;;;25.24;52.14;97998.50;5055540;28;20033;-70
2021/09/29 14:32:14;;;;;;;12.25;8.13;;;;;;;24.56;56.02;97981.56;5056677;28;20119;-71